Terminal Aerodrome Forecast
Issued by NWS

Current Version | Previous Version | Text Only | Print | Product List | Glossary On
Versions: 1 2 3 4 5 6 7 8 9 10 11 12 13 14 15 16 17 18 19 20 21 22 23 24 25 26 27 28 29 30 31 32 33 34 35 36 37 38 39 40
000
FTUS46 KOTX 011139
TAFCOE
TAF
KCOE 011139Z 0112/0212 06005KT P6SM SCT030 OVC080
     FM011600 04006KT 3SM -SN SCT010 OVC020
     FM011800 04006KT 1 1/2SM -SN OVC008
     FM012200 22004KT 1SM -SN BR OVC006
     FM020200 22004KT 4SM -SHSN BR SCT008 OVC012
     FM020400 20005KT 6SM BR SCT003 OVC010
      AMD LTD TO CLD AND VIS=

USA.gov is the U.S. government's official web portal to all federal, state and local government web resources and services.